Portada
METAR-TAF:

METAR-TAF

Aeroports :

Exeter, Anglaterra

latitud: 50-44N, longitud: 003-25W, altitud: 30 m

Observació

L'informe es va fer fa 23 minuts, a les 14:20 UTC
Vent 12 kt del Oest/Nord-Oest, variant entre Oest/Sud-Oest i Nord-Oest
Temperatura 7°C
Humitat 57%
Pressió 1010 hPa
Visibilitat 10 km o més
Núvols disperses a una alçada de 3800 ft

METAR: EGTE 261420Z 29012KT 250V320 9999 SCT038 07/M01 Q1010

Hora: 14:43 (14:43 UTC)

Pronòstic

L'informe es va fer fa 52 minuts, a les 13:51 UTC
Pronòstic vàlid del 26 a les 15 UTC al 26 a les 24 UTC
Vent 14 kt del Oest
Visibilitat 10 km o més
Núvols disperses a una alçada de 3000 ft
Evolucionant progressivament
l' 26 a les 19 UTC al 26 a les 22 UTC
Vent 6 kt del Sud
Evolucionant progressivament
l' 26 a les 22 UTC al 26 a les 24 UTC
Cel ennuvolat a una alçada de 1000 ft
pluja

TAF: EGTE 261351Z 2615/2624 27014KT 9999 SCT030 BECMG 2619/2622 17006KT BECMG 2622/2624 -RA BKN010

Observacions i pronòstics meteorològics de més de 4000 aeroports (METAR i TAF).

Les estacions disponibles són els punts grocs i vermells al mapa.

Posi el ratolí al punt desitjat per veure el nom de l'estació.

Feu clic per veure les observacions i els pronòstics meteorològics.

Per canviar el mapa: feu clic els botons verds amb una creu de color negre per apropar; al botó verd amb un guió per allunyar la imatge; o en les fletxes verdes per a mapes adjacents.


METAR-TAF: